Terminal Aerodrome Forecast
Issued by NWS

Home | Current Version | Previous Version | Text Only | Print | Product List | Glossary On
Versions: 1 2 3 4 5 6 7 8 9 10 11 12 13 14 15 16 17 18 19 20 21
000
FTUS41 KPHI 252300
TAFMIV
TAF
KMIV 252330Z 2600/2624 34005KT P6SM OVC040
     FM260500 05007KT 5SM -RASN OVC030
     FM260700 06012KT 2SM -SN OVC015
     FM261500 06012G22KT 3SM -RASN OVC009
     FM262100 04016G26KT 1SM -SN OVC007=

USA.gov is the U.S. government's official web portal to all federal, state and local government web resources and services.